createdAt,value
2022-08-14T00:00:54.137Z,76.55
2022-08-14T00:01:55.187Z,77.26
2022-08-14T00:02:54.381Z,76.75
2022-08-14T00:03:54.047Z,76.92
2022-08-14T00:04:54.065Z,77.33
2022-08-14T00:06:00.106Z,76.82
2022-08-14T00:06:54.019Z,77.43
2022-08-14T00:07:54.027Z,77.33
2022-08-14T00:08:53.978Z,76.72
2022-08-14T00:10:01.856Z,77.33
2022-08-14T00:10:56.125Z,78.58
2022-08-14T00:11:53.941Z,77.87
2022-08-14T00:12:56.617Z,78.28
2022-08-14T00:13:53.938Z,79.09
2022-08-14T00:14:55.153Z,79.80
2022-08-14T00:15:53.913Z,79.19
2022-08-14T00:16:55.946Z,78.68
2022-08-14T00:17:53.900Z,78.28
2022-08-14T00:19:06.152Z,78.52
2022-08-14T00:19:53.873Z,79.33
2022-08-14T00:20:53.856Z,82.28
2022-08-14T00:21:53.858Z,80.55
2022-08-14T00:22:56.343Z,83.20
2022-08-14T00:23:54.243Z,80.85
2022-08-14T00:24:53.835Z,81.98
2022-08-14T00:26:05.928Z,82.62
2022-08-14T00:26:54.820Z,80.08
2022-08-14T00:27:54.124Z,82.62
2022-08-14T00:28:53.791Z,81.51
2022-08-14T00:29:53.761Z,82.01
2022-08-14T00:30:53.763Z,80.59
2022-08-14T00:31:55.959Z,80.18
2022-08-14T00:32:56.616Z,80.69
2022-08-14T00:33:53.764Z,80.59
2022-08-14T00:34:53.737Z,78.31
2022-08-14T00:36:36.289Z,79.33
2022-08-14T00:36:53.709Z,79.74
2022-08-14T00:37:53.670Z,79.84
2022-08-14T00:38:53.692Z,78.58
2022-08-14T00:39:53.687Z,78.17
2022-08-14T00:40:53.665Z,79.09
2022-08-14T00:41:53.651Z,78.17
2022-08-14T00:42:56.274Z,78.28
2022-08-14T00:43:53.612Z,78.17
2022-08-14T00:44:53.618Z,77.77
2022-08-14T00:45:53.621Z,77.47
2022-08-14T00:46:53.614Z,77.47
2022-08-14T00:47:53.594Z,77.87
2022-08-14T00:48:53.564Z,78.31
2022-08-14T00:49:53.538Z,78.21
2022-08-14T00:50:53.561Z,77.91
2022-08-14T00:51:53.539Z,77.70
2022-08-14T00:52:53.536Z,77.56
2022-08-14T00:53:53.530Z,76.55
2022-08-14T00:54:58.004Z,77.36
2022-08-14T00:55:53.502Z,77.36
2022-08-14T00:56:57.398Z,77.16
2022-08-14T00:57:53.456Z,77.26
2022-08-14T00:58:53.483Z,76.45
2022-08-14T00:59:53.455Z,77.36
2022-08-14T01:00:57.793Z,77.47
2022-08-14T01:01:53.491Z,76.86
2022-08-14T01:02:53.790Z,76.95
2022-08-14T01:03:53.464Z,76.45
2022-08-14T01:04:54.392Z,76.14
2022-08-14T01:05:53.409Z,76.45
2022-08-14T01:06:55.303Z,76.14
2022-08-14T01:07:56.836Z,76.34
2022-08-14T01:08:59.501Z,76.45
2022-08-14T01:09:53.355Z,76.95
2022-08-14T01:10:53.359Z,76.95
2022-08-14T01:11:57.125Z,76.34
2022-08-14T01:12:53.574Z,77.06
2022-08-14T01:13:56.034Z,77.06
2022-08-14T01:14:53.297Z,76.95
2022-08-14T01:15:58.410Z,76.86
2022-08-14T01:16:55.659Z,77.36
2022-08-14T01:17:53.246Z,77.77
2022-08-14T01:18:57.799Z,78.11
2022-08-14T01:19:53.915Z,77.81
2022-08-14T01:20:53.234Z,77.91
2022-08-14T01:21:53.811Z,77.91
2022-08-14T01:22:53.210Z,78.01
2022-08-14T01:23:53.895Z,78.31
2022-08-14T01:24:53.209Z,78.21
2022-08-14T01:25:53.170Z,78.72
2022-08-14T01:26:53.202Z,78.11
2022-08-14T01:27:57.501Z,77.60
2022-08-14T01:28:56.870Z,77.70
2022-08-14T01:30:01.173Z,78.21
2022-08-14T01:30:53.153Z,78.35
2022-08-14T01:31:53.118Z,78.76
2022-08-14T01:32:53.117Z,78.55
2022-08-14T01:33:59.911Z,78.45
2022-08-14T01:36:04.408Z,79.16
2022-08-14T01:36:22.809Z,79.27
2022-08-14T01:36:53.088Z,78.45
2022-08-14T01:37:54.527Z,77.64
2022-08-14T01:38:53.064Z,77.74
2022-08-14T01:39:54.420Z,78.45
2022-08-14T01:40:53.022Z,77.84
2022-08-14T01:41:53.035Z,77.53
2022-08-14T01:42:53.003Z,77.94
2022-08-14T01:43:56.461Z,78.05
2022-08-14T01:44:54.330Z,79.57
2022-08-14T01:45:57.615Z,78.25
2022-08-14T01:46:57.966Z,79.27
2022-08-14T01:48:03.113Z,79.68
2022-08-14T01:48:52.966Z,79.57
2022-08-14T01:50:01.153Z,79.98
2022-08-14T01:50:52.938Z,79.57
2022-08-14T01:51:52.911Z,78.66
2022-08-14T01:52:59.021Z,78.89
2022-08-14T01:53:55.900Z,78.89
2022-08-14T01:54:58.054Z,79.10
2022-08-14T01:55:52.868Z,80.22
2022-08-14T01:56:55.647Z,80.52
2022-08-14T01:58:18.447Z,78.28
2022-08-14T01:58:57.759Z,80.63
2022-08-14T01:59:52.835Z,78.69
2022-08-14T02:00:52.825Z,80.63
2022-08-14T02:01:58.198Z,79.81
2022-08-14T02:02:52.912Z,80.73
2022-08-14T02:03:53.455Z,78.28
2022-08-14T02:04:57.378Z,77.87
2022-08-14T02:05:52.745Z,78.66
2022-08-14T02:06:54.175Z,78.96
2022-08-14T02:07:55.688Z,77.53
2022-08-14T02:08:55.267Z,77.03
2022-08-14T02:09:55.669Z,76.92
2022-08-14T02:10:52.710Z,77.33
2022-08-14T02:11:54.547Z,76.11
2022-08-14T02:12:57.066Z,76.21
2022-08-14T02:13:52.666Z,76.21
2022-08-14T02:15:00.660Z,76.42
2022-08-14T02:16:01.038Z,76.42
2022-08-14T02:16:59.218Z,75.81
2022-08-14T02:17:52.760Z,76.11
2022-08-14T02:18:53.532Z,75.81
2022-08-14T02:19:51.622Z,76.99
2022-08-14T02:20:52.617Z,75.98
2022-08-14T02:21:52.644Z,75.57
2022-08-14T02:22:59.207Z,75.77
2022-08-14T02:23:53.535Z,75.37
2022-08-14T02:24:55.512Z,75.37
2022-08-14T02:25:59.179Z,75.37
2022-08-14T02:28:19.327Z,75.16
2022-08-14T02:30:00.636Z,75.46
2022-08-14T02:30:29.677Z,75.46
2022-08-14T02:31:42.280Z,75.37
2022-08-14T02:33:41.972Z,75.70
2022-08-14T02:34:41.306Z,75.70
2022-08-14T02:35:40.715Z,75.60
2022-08-14T02:37:06.170Z,75.70
2022-08-14T02:37:48.246Z,76.21
2022-08-14T02:38:39.692Z,75.81
2022-08-14T02:39:47.568Z,76.21
2022-08-14T02:40:40.446Z,76.25
2022-08-14T02:41:43.325Z,76.76
2022-08-14T02:49:01.480Z,77.06
2022-08-14T02:49:10.361Z,76.76
2022-08-14T02:50:00.142Z,76.86
2022-08-14T02:51:00.754Z,77.06
2022-08-14T02:52:00.086Z,77.17
2022-08-14T02:53:03.109Z,77.26
2022-08-14T02:54:00.063Z,77.06
2022-08-14T02:55:07.834Z,77.10
2022-08-14T02:56:03.013Z,77.20
2022-08-14T02:57:15.251Z,77.00
2022-08-14T02:58:03.047Z,77.47
2022-08-14T02:59:00.411Z,77.81
2022-08-14T03:00:10.030Z,77.20
2022-08-14T03:01:01.212Z,77.37
2022-08-14T03:01:59.987Z,77.61
2022-08-14T03:03:00.106Z,77.51
2022-08-14T03:03:59.952Z,77.51
2022-08-14T03:04:59.976Z,77.51
2022-08-14T03:06:00.317Z,77.71
2022-08-14T03:07:07.225Z,77.61
2022-08-14T03:07:59.921Z,77.81
2022-08-14T03:08:59.939Z,78.22
2022-08-14T03:10:27.458Z,77.91
2022-08-14T03:10:59.901Z,77.81
2022-08-14T03:11:59.876Z,78.22
2022-08-14T03:14:11.455Z,78.42
2022-08-14T03:15:13.826Z,78.22
2022-08-14T03:16:26.691Z,78.83
2022-08-14T03:17:12.292Z,78.53
2022-08-14T03:18:12.360Z,78.22
2022-08-14T03:19:12.261Z,78.63
2022-08-14T03:20:12.321Z,78.53
2022-08-14T03:21:12.282Z,78.53
2022-08-14T03:22:17.727Z,79.03
2022-08-14T03:23:13.010Z,79.14
2022-08-14T03:24:21.455Z,79.34
2022-08-14T03:27:35.315Z,80.50
2022-08-14T03:28:33.103Z,80.09
2022-08-14T03:29:26.727Z,80.09
2022-08-14T03:30:39.981Z,80.80
2022-08-14T03:31:28.155Z,80.94
2022-08-14T03:32:30.600Z,80.84
2022-08-14T03:33:26.306Z,80.74
2022-08-14T03:34:47.795Z,80.64
2022-08-14T03:35:30.881Z,81.11
2022-08-14T03:37:52.216Z,80.29
2022-08-14T03:39:21.991Z,79.68
2022-08-14T03:39:27.778Z,79.99
2022-08-14T03:40:33.190Z,79.99
2022-08-14T03:41:26.610Z,79.99
2022-08-14T03:42:30.973Z,80.09
2022-08-14T03:43:32.320Z,80.33
2022-08-14T03:45:47.893Z,80.33
2022-08-14T03:46:52.942Z,80.43
2022-08-14T03:47:46.401Z,80.13
2022-08-14T03:48:38.124Z,80.54
2022-08-14T03:49:41.932Z,80.13
2022-08-14T03:50:37.623Z,80.23
2022-08-14T03:51:37.598Z,79.93
2022-08-14T03:52:40.903Z,79.72
2022-08-14T03:53:37.619Z,79.52
2022-08-14T03:54:37.561Z,79.11
2022-08-14T03:55:37.560Z,78.70
2022-08-14T03:56:37.554Z,78.91
2022-08-14T03:57:37.598Z,79.21
2022-08-14T03:58:37.537Z,79.93
2022-08-14T03:59:37.545Z,80.02
2022-08-14T04:00:42.620Z,80.02
2022-08-14T04:01:39.265Z,80.47
2022-08-14T04:02:47.206Z,80.68
2022-08-14T04:03:37.535Z,80.57
2022-08-14T04:04:37.456Z,80.57
2022-08-14T04:05:42.612Z,80.78
2022-08-14T04:06:43.313Z,80.68
2022-08-14T04:07:37.452Z,80.68
2022-08-14T04:08:37.445Z,80.57
2022-08-14T04:09:37.416Z,80.47
2022-08-14T04:10:37.413Z,80.57
2022-08-14T04:11:37.406Z,80.27
2022-08-14T04:12:37.377Z,80.78
2022-08-14T04:13:37.423Z,80.78
2022-08-14T04:14:37.484Z,80.47
2022-08-14T04:15:56.246Z,80.47
2022-08-14T04:16:37.365Z,80.68
2022-08-14T04:17:37.356Z,80.47
2022-08-14T04:18:37.590Z,80.78
2022-08-14T04:19:37.308Z,80.78
2022-08-14T04:20:40.770Z,80.57
2022-08-14T04:22:01.778Z,80.88
2022-08-14T04:22:37.297Z,80.47
2022-08-14T04:23:37.282Z,81.39
2022-08-14T04:24:37.975Z,80.61
2022-08-14T04:25:37.269Z,80.91
2022-08-14T04:26:42.475Z,81.53
2022-08-14T04:27:48.679Z,81.43
2022-08-14T04:29:01.578Z,80.71
2022-08-14T04:29:37.236Z,80.68
2022-08-14T04:30:37.186Z,80.88
2022-08-14T04:32:58.418Z,80.68
2022-08-14T04:33:14.577Z,80.68
2022-08-14T04:33:37.178Z,81.18
2022-08-14T04:34:37.185Z,81.29
2022-08-14T04:35:55.472Z,80.68
2022-08-14T04:36:37.159Z,80.47
2022-08-14T04:37:37.151Z,80.88
2022-08-14T04:38:38.340Z,80.57
2022-08-14T04:39:37.169Z,80.27
2022-08-14T04:40:40.276Z,80.68
2022-08-14T04:41:37.115Z,79.86
2022-08-14T04:42:37.066Z,81.09
2022-08-14T04:43:38.763Z,80.88
2022-08-14T04:44:37.340Z,80.37
2022-08-14T04:45:37.061Z,80.47
2022-08-14T04:46:55.729Z,80.98
2022-08-14T04:47:37.047Z,80.57
2022-08-14T04:48:41.177Z,80.16
2022-08-14T04:49:46.548Z,80.57
2022-08-14T04:50:43.686Z,80.47
2022-08-14T04:51:37.306Z,80.37
2022-08-14T04:52:41.894Z,80.57
2022-08-14T04:53:43.027Z,80.57
2022-08-14T04:54:36.945Z,80.78
2022-08-14T04:55:36.957Z,81.29
2022-08-14T04:56:36.935Z,80.88
2022-08-14T04:57:36.910Z,80.88
2022-08-14T04:58:36.904Z,81.18
2022-08-14T04:59:36.900Z,80.98
2022-08-14T05:00:36.886Z,80.98
2022-08-14T05:01:39.942Z,81.29
2022-08-14T05:02:37.009Z,81.29
2022-08-14T05:03:37.690Z,80.88
2022-08-14T05:04:39.733Z,81.80
2022-08-14T05:05:36.864Z,82.00
2022-08-14T05:06:38.739Z,81.80
2022-08-14T05:07:54.260Z,81.18
2022-08-14T05:08:57.081Z,81.80
2022-08-14T05:09:36.808Z,81.59
2022-08-14T05:10:39.059Z,81.39
2022-08-14T05:11:36.921Z,81.80
2022-08-14T05:13:12.938Z,81.80
2022-08-14T05:13:59.376Z,81.15
2022-08-14T05:14:53.369Z,81.66
2022-08-14T05:15:36.772Z,81.35
2022-08-14T05:16:36.723Z,81.35
2022-08-14T05:17:44.012Z,80.74
2022-08-14T05:19:17.223Z,81.04
2022-08-14T05:19:44.647Z,81.96
2022-08-14T05:22:00.121Z,82.37
2022-08-14T05:22:17.213Z,81.56
2022-08-14T05:22:36.757Z,81.25
2022-08-14T05:23:37.329Z,81.15
2022-08-14T05:24:36.632Z,81.01
2022-08-14T05:25:36.626Z,81.01
2022-08-14T05:26:36.630Z,81.52
2022-08-14T05:27:36.592Z,81.72
2022-08-14T05:28:36.603Z,82.33
2022-08-14T05:29:36.597Z,81.52
2022-08-14T05:30:36.589Z,81.52
2022-08-14T05:31:39.561Z,82.23
2022-08-14T05:32:40.665Z,81.72
2022-08-14T05:33:38.681Z,82.43
2022-08-14T05:34:36.529Z,82.64
2022-08-14T05:35:36.523Z,82.23
2022-08-14T05:36:36.538Z,83.15
2022-08-14T05:37:36.488Z,82.13
2022-08-14T05:38:36.492Z,82.84
2022-08-14T05:39:36.522Z,81.99
2022-08-14T05:40:36.487Z,82.90
2022-08-14T05:41:52.621Z,81.68
2022-08-14T05:42:36.445Z,83.21
2022-08-14T05:43:41.528Z,82.70
2022-08-14T05:44:36.445Z,81.38
2022-08-14T05:45:36.434Z,82.09
2022-08-14T05:46:36.412Z,82.29
2022-08-14T05:47:39.036Z,81.99
2022-08-14T05:48:43.324Z,82.50
2022-08-14T05:49:36.368Z,83.11
2022-08-14T05:50:36.390Z,82.70
2022-08-14T05:51:36.342Z,83.11
2022-08-14T05:52:48.873Z,82.80
2022-08-14T05:53:36.336Z,82.90
2022-08-14T05:54:36.328Z,82.90
2022-08-14T05:55:36.798Z,82.90
2022-08-14T05:56:37.065Z,82.70
2022-08-14T05:57:36.284Z,82.46
2022-08-14T05:58:41.431Z,82.87
2022-08-14T05:59:39.364Z,83.48
2022-08-14T06:00:37.066Z,83.58
2022-08-14T06:01:36.310Z,84.59
2022-08-14T06:02:36.266Z,83.98
2022-08-14T06:03:36.218Z,84.19
2022-08-14T06:04:36.225Z,84.70
2022-08-14T06:05:38.770Z,84.19
2022-08-14T06:06:38.169Z,83.98
2022-08-14T06:07:36.173Z,84.29
2022-08-14T06:08:41.647Z,83.48
2022-08-14T06:09:40.678Z,84.70
2022-08-14T06:10:36.175Z,83.44
2022-08-14T06:11:36.141Z,84.25
2022-08-14T06:13:05.713Z,83.84
2022-08-14T06:13:41.169Z,84.25
2022-08-14T06:14:36.124Z,84.76
2022-08-14T06:15:36.141Z,84.15
2022-08-14T06:16:36.097Z,84.11
2022-08-14T06:17:46.294Z,84.62
2022-08-14T06:18:36.086Z,84.01
2022-08-14T06:19:36.067Z,83.91
2022-08-14T06:20:36.106Z,84.31
2022-08-14T06:21:36.035Z,84.31
2022-08-14T06:22:36.047Z,85.03
2022-08-14T06:23:36.006Z,83.81
2022-08-14T06:24:36.014Z,85.53
2022-08-14T06:25:36.021Z,86.25
2022-08-14T06:26:35.993Z,85.03
2022-08-14T06:27:35.977Z,84.82
2022-08-14T06:28:35.993Z,85.64
2022-08-14T06:29:35.960Z,85.03
2022-08-14T06:30:45.975Z,85.03
2022-08-14T06:31:35.963Z,85.60
2022-08-14T06:32:37.895Z,85.60
2022-08-14T06:35:01.408Z,84.17
2022-08-14T06:35:13.149Z,85.60
2022-08-14T06:35:35.931Z,86.00
2022-08-14T06:36:35.918Z,86.00
2022-08-14T06:37:35.875Z,85.80
2022-08-14T06:38:35.877Z,85.09
2022-08-14T06:39:36.325Z,86.51
2022-08-14T06:40:36.016Z,83.67
2022-08-14T06:41:56.656Z,82.85
2022-08-14T06:42:35.864Z,85.76
2022-08-14T06:43:35.817Z,83.22
2022-08-14T06:44:35.827Z,84.44
2022-08-14T06:45:36.194Z,84.34
2022-08-14T06:46:37.119Z,85.86
2022-08-14T06:47:35.789Z,85.55
2022-08-14T06:48:35.765Z,83.73
2022-08-14T06:49:44.153Z,83.93
2022-08-14T06:50:35.768Z,85.96
2022-08-14T06:51:44.353Z,85.15
2022-08-14T06:52:35.804Z,81.70
2022-08-14T06:53:35.727Z,85.31
2022-08-14T06:54:35.724Z,82.67
2022-08-14T06:55:37.056Z,79.63
2022-08-14T06:56:35.747Z,80.84
2022-08-14T06:57:35.695Z,83.34
2022-08-14T06:58:35.661Z,80.19
2022-08-14T06:59:35.654Z,82.23
2022-08-14T07:00:35.633Z,83.54
2022-08-14T07:01:35.684Z,81.92
2022-08-14T07:02:35.870Z,83.95
2022-08-14T07:03:35.598Z,84.93
2022-08-14T07:04:35.615Z,83.81
2022-08-14T07:05:35.586Z,83.20
2022-08-14T07:06:46.394Z,84.12
2022-08-14T07:07:35.584Z,84.01
2022-08-14T07:08:35.560Z,83.81
2022-08-14T07:09:44.081Z,79.45
2022-08-14T07:10:35.581Z,77.22
2022-08-14T07:11:35.532Z,76.78
2022-08-14T07:13:02.055Z,80.79
2022-08-14T07:13:35.497Z,82.01
2022-08-14T07:14:35.511Z,83.73
2022-08-14T07:15:39.974Z,81.20
2022-08-14T07:16:35.509Z,77.55
2022-08-14T07:17:36.464Z,80.49
2022-08-14T07:18:35.470Z,76.20
2022-08-14T07:19:35.429Z,78.83
2022-08-14T07:20:35.463Z,80.55
2022-08-14T07:22:05.573Z,76.26
2022-08-14T07:22:50.050Z,79.60
2022-08-14T07:23:35.395Z,74.44
2022-08-14T07:24:35.398Z,77.34
2022-08-14T07:25:35.365Z,79.87
2022-08-14T07:26:35.403Z,81.09
2022-08-14T07:27:36.084Z,78.66
2022-08-14T07:28:35.905Z,78.55
2022-08-14T07:29:35.373Z,77.84
2022-08-14T07:30:35.410Z,79.06
2022-08-14T07:31:35.319Z,78.55
2022-08-14T07:32:35.309Z,74.16
2022-08-14T07:33:35.313Z,75.58
2022-08-14T07:34:40.729Z,77.61
2022-08-14T07:35:43.079Z,76.15
2022-08-14T07:36:35.313Z,76.66
2022-08-14T07:37:35.259Z,76.46
2022-08-14T07:38:37.519Z,71.87
2022-08-14T07:39:35.328Z,74.60
2022-08-14T07:40:35.278Z,74.60
2022-08-14T07:41:57.819Z,71.84
2022-08-14T07:42:35.279Z,74.57
2022-08-14T07:43:35.181Z,72.75
2022-08-14T07:44:45.908Z,73.25
2022-08-14T07:45:35.167Z,72.95
2022-08-14T07:46:35.203Z,76.45
2022-08-14T07:47:35.157Z,73.82
2022-08-14T07:48:35.139Z,74.93
2022-08-14T07:49:35.116Z,72.51
2022-08-14T07:50:37.284Z,73.02
2022-08-14T07:51:36.958Z,69.15
2022-08-14T07:52:35.125Z,67.80
2022-08-14T07:53:36.673Z,63.84
2022-08-14T07:54:35.081Z,63.37
2022-08-14T07:55:35.082Z,64.65
2022-08-14T07:56:47.557Z,60.69
2022-08-14T07:57:35.047Z,59.83
2022-08-14T07:58:38.648Z,59.20
2022-08-14T07:59:41.991Z,60.11
2022-08-14T08:00:35.036Z,60.38
2022-08-14T08:01:35.009Z,57.74
2022-08-14T08:02:35.082Z,56.71
2022-08-14T08:03:35.088Z,56.28
2022-08-14T08:04:35.208Z,54.25
2022-08-14T08:05:34.975Z,54.62
2022-08-14T08:06:35.041Z,54.32
2022-08-14T08:07:34.948Z,57.80
2022-08-14T08:08:35.213Z,53.50
2022-08-14T08:09:34.934Z,51.46
2022-08-14T08:11:02.525Z,53.37
2022-08-14T08:11:37.488Z,52.74
2022-08-14T08:12:34.938Z,52.94
2022-08-14T08:13:35.622Z,52.24
2022-08-14T08:14:56.004Z,52.82
2022-08-14T08:15:34.879Z,54.82
2022-08-14T08:16:35.138Z,52.99
2022-08-14T08:17:38.626Z,53.19
2022-08-14T08:18:36.157Z,52.19
2022-08-14T08:19:42.789Z,52.67
2022-08-14T08:20:34.978Z,51.07
2022-08-14T08:21:35.641Z,49.95
2022-08-14T08:22:34.849Z,52.25
2022-08-14T08:23:40.652Z,48.63
2022-08-14T08:24:34.777Z,49.90
2022-08-14T08:25:34.753Z,51.29
2022-08-14T08:26:34.817Z,49.50
2022-08-14T08:27:34.746Z,48.48
2022-08-14T08:28:34.773Z,47.28
2022-08-14T08:29:34.972Z,46.86
2022-08-14T08:30:34.747Z,45.06
2022-08-14T08:31:35.110Z,46.86
2022-08-14T08:32:36.500Z,45.14
2022-08-14T08:33:37.316Z,48.80
2022-08-14T08:34:34.693Z,45.32
2022-08-14T08:35:46.238Z,46.12
2022-08-14T08:36:34.688Z,46.39
2022-08-14T08:37:40.175Z,44.78
2022-08-14T08:39:17.976Z,44.26
2022-08-14T08:40:01.748Z,44.76
2022-08-14T08:40:34.687Z,42.43
2022-08-14T08:41:34.633Z,40.82
2022-08-14T08:42:41.256Z,40.41
2022-08-14T08:43:34.603Z,44.73
2022-08-14T08:44:34.703Z,41.55
2022-08-14T08:45:35.412Z,45.40
2022-08-14T08:46:38.623Z,40.62
2022-08-14T08:48:20.829Z,39.22
2022-08-14T08:48:53.845Z,38.09
2022-08-14T08:49:36.024Z,37.77
2022-08-14T08:51:33.329Z,36.63
2022-08-14T08:52:05.844Z,37.30
2022-08-14T08:53:05.674Z,35.30
2022-08-14T08:54:05.539Z,35.86
2022-08-14T08:55:05.568Z,35.15
2022-08-14T08:56:30.636Z,35.25
2022-08-14T08:57:05.807Z,34.25
2022-08-14T08:58:12.583Z,33.74
2022-08-14T08:59:05.511Z,33.33
2022-08-14T09:00:18.765Z,32.72
2022-08-14T09:01:05.521Z,32.51
2022-08-14T09:04:22.802Z,30.73
2022-08-14T09:07:00.662Z,28.61
2022-08-14T09:07:49.824Z,29.87
2022-08-14T09:08:49.373Z,29.38
2022-08-14T09:09:54.509Z,29.75
2022-08-14T09:10:52.412Z,30.13
2022-08-14T09:11:50.070Z,29.35
2022-08-14T09:12:53.198Z,27.95
2022-08-14T09:13:49.387Z,29.90
2022-08-14T09:14:49.302Z,27.83
2022-08-14T09:15:49.273Z,27.34
2022-08-14T09:16:50.499Z,28.99
2022-08-14T09:17:50.061Z,25.56
2022-08-14T09:18:49.265Z,29.75
2022-08-14T09:19:49.275Z,28.00
2022-08-14T09:20:49.224Z,29.06
2022-08-14T09:21:49.783Z,27.59
2022-08-14T09:22:49.700Z,26.81
2022-08-14T09:24:28.923Z,27.50
2022-08-14T09:24:49.207Z,28.20
2022-08-14T09:25:59.982Z,28.97
2022-08-14T09:27:31.354Z,26.80
2022-08-14T09:30:31.363Z,26.20
2022-08-14T09:30:37.668Z,24.79
2022-08-14T09:31:27.832Z,25.57
2022-08-14T09:33:30.613Z,24.88
2022-08-14T09:34:02.049Z,26.01
2022-08-14T09:34:35.660Z,24.27
2022-08-14T09:35:35.630Z,25.43
2022-08-14T09:36:35.648Z,23.00
2022-08-14T09:37:35.639Z,27.57
2022-08-14T09:38:43.361Z,25.42
2022-08-14T09:39:35.744Z,25.53
2022-08-14T09:40:38.832Z,24.93
2022-08-14T09:42:21.796Z,23.59
2022-08-14T09:42:49.976Z,24.26
2022-08-14T09:43:58.250Z,26.39
2022-08-14T09:44:35.563Z,25.21
2022-08-14T09:45:40.249Z,24.06
2022-08-14T09:46:35.588Z,24.37
